createdAt,value
2018-02-21T00:01:21.453Z,29.92
2018-02-21T00:03:48.918Z,29.45
2018-02-21T00:06:16.410Z,31.07
2018-02-21T00:08:43.870Z,29.10
2018-02-21T00:11:11.315Z,30.12
2018-02-21T00:13:38.803Z,27.03
2018-02-21T00:16:06.855Z,26.35
2018-02-21T00:18:34.433Z,32.95
2018-02-21T00:21:01.940Z,29.13
2018-02-21T00:23:29.388Z,28.40
2018-02-21T00:25:56.887Z,27.42
2018-02-21T00:28:24.351Z,27.50
2018-02-21T00:30:51.833Z,32.30
2018-02-21T00:33:19.308Z,28.07
2018-02-21T00:35:46.793Z,30.48
2018-02-21T00:38:15.550Z,29.30
2018-02-21T00:40:43.018Z,30.40
2018-02-21T00:43:10.488Z,29.05
2018-02-21T00:45:37.988Z,32.13
2018-02-21T00:48:05.449Z,29.73
2018-02-21T00:50:32.911Z,28.87
2018-02-21T00:53:00.410Z,28.85
2018-02-21T00:55:27.898Z,33.50
2018-02-21T00:57:55.402Z,30.87
2018-02-21T01:00:23.507Z,33.60
2018-02-21T01:02:50.963Z,30.37
2018-02-21T01:05:18.463Z,32.13
2018-02-21T01:07:45.929Z,31.00
2018-02-21T01:10:13.381Z,29.25
2018-02-21T01:12:41.097Z,32.23
2018-02-21T01:15:08.593Z,32.10
2018-02-21T01:17:37.386Z,31.23
2018-02-21T01:20:04.835Z,31.30
2018-02-21T01:22:32.688Z,30.55
2018-02-21T01:25:00.144Z,30.37
2018-02-21T01:27:27.625Z,29.53
2018-02-21T01:29:55.082Z,31.53
2018-02-21T01:32:22.557Z,29.25
2018-02-21T01:34:50.957Z,28.65
2018-02-21T01:37:18.400Z,33.23
2018-02-21T01:39:45.950Z,32.23
2018-02-21T01:42:13.364Z,28.50
2018-02-21T01:44:40.817Z,31.03
2018-02-21T01:47:08.301Z,30.27
2018-02-21T01:49:35.766Z,30.40
2018-02-21T01:52:03.328Z,29.77
2018-02-21T01:54:30.777Z,29.37
2018-02-21T01:56:58.912Z,33.42
2018-02-21T01:59:26.372Z,30.33
2018-02-21T02:01:54.633Z,30.17
2018-02-21T02:04:25.970Z,26.40
2018-02-21T02:06:53.900Z,30.90
2018-02-21T02:09:21.460Z,28.77
2018-02-21T02:11:48.927Z,29.80
2018-02-21T02:14:16.368Z,29.83
2018-02-21T02:16:43.841Z,33.00
2018-02-21T02:19:14.736Z,29.60
2018-02-21T02:21:42.180Z,31.40
2018-02-21T02:24:09.765Z,32.07
2018-02-21T02:26:37.855Z,30.62
2018-02-21T02:29:05.419Z,30.90
2018-02-21T02:31:32.890Z,34.73
2018-02-21T02:34:00.335Z,30.33
2018-02-21T02:36:28.035Z,32.58
2018-02-21T02:39:07.206Z,33.20
2018-02-21T02:41:34.709Z,31.70
2018-02-21T02:44:02.403Z,29.93
2018-02-21T02:46:29.916Z,33.42
2018-02-21T02:48:57.710Z,33.55
2018-02-21T02:51:25.267Z,28.33
2018-02-21T02:53:53.192Z,34.63
2018-02-21T02:56:20.659Z,31.97
2018-02-21T02:58:48.127Z,36.43
2018-02-21T03:01:15.575Z,33.97
2018-02-21T03:03:43.106Z,32.25
2018-02-21T03:06:10.577Z,33.83
2018-02-21T03:08:38.872Z,33.83
2018-02-21T03:11:07.665Z,30.90
2018-02-21T03:13:35.172Z,34.20
2018-02-21T03:16:03.428Z,34.23
2018-02-21T03:18:31.512Z,37.25
2018-02-21T03:20:58.992Z,34.63
2018-02-21T03:23:26.480Z,36.28
2018-02-21T03:25:53.978Z,36.33
2018-02-21T03:28:21.427Z,37.80
2018-02-21T03:30:48.891Z,34.27
2018-02-21T03:33:16.355Z,33.70
2018-02-21T03:35:49.834Z,38.90
2018-02-21T03:38:17.312Z,35.80
2018-02-21T03:40:45.885Z,36.18
2018-02-21T03:43:13.365Z,39.10
2018-02-21T03:45:40.890Z,34.50
2018-02-21T03:48:08.520Z,36.80
2018-02-21T03:50:39.500Z,40.37
2018-02-21T03:53:06.995Z,34.03
2018-02-21T03:55:35.029Z,38.86
2018-02-21T03:58:02.501Z,37.47
2018-02-21T04:00:29.994Z,38.10
2018-02-21T04:02:57.440Z,37.97
2018-02-21T04:05:28.257Z,36.50
2018-02-21T04:07:55.757Z,35.37
2018-02-21T04:10:23.223Z,38.60
2018-02-21T04:12:50.884Z,38.40
2018-02-21T04:15:19.188Z,26.42
2018-02-21T04:17:46.669Z,29.83
2018-02-21T04:20:14.136Z,34.30
2018-02-21T04:22:45.705Z,40.25
2018-02-21T04:25:14.569Z,39.08
2018-02-21T04:27:42.060Z,33.73
2018-02-21T04:30:09.542Z,34.67
2018-02-21T04:32:37.061Z,35.92
2018-02-21T04:35:04.661Z,35.73
2018-02-21T04:37:33.804Z,34.43
2018-02-21T04:40:01.285Z,31.47
2018-02-21T04:42:28.731Z,36.37
2018-02-21T04:44:56.201Z,33.67
2018-02-21T04:47:23.701Z,32.00
2018-02-21T04:49:51.148Z,37.43
2018-02-21T04:52:22.216Z,37.58
2018-02-21T04:54:55.645Z,38.77
2018-02-21T04:57:26.585Z,35.53
2018-02-21T05:00:01.633Z,36.63
2018-02-21T05:02:29.482Z,18.17
2018-02-21T05:04:56.960Z,35.88
2018-02-21T05:07:24.457Z,33.10
2018-02-21T05:09:51.921Z,33.90
2018-02-21T05:12:19.416Z,36.63
2018-02-21T05:14:47.117Z,35.33
2018-02-21T05:17:14.595Z,36.00
2018-02-21T05:19:42.055Z,32.90
2018-02-21T05:22:13.466Z,34.25
2018-02-21T05:24:40.946Z,35.00
2018-02-21T05:27:08.492Z,36.13
2018-02-21T05:29:35.946Z,33.20
2018-02-21T05:32:03.430Z,37.95
2018-02-21T05:34:30.884Z,33.63
2018-02-21T05:37:02.648Z,35.88
2018-02-21T05:39:30.104Z,35.93
2018-02-21T05:41:58.352Z,37.00
2018-02-21T05:44:25.862Z,34.67
2018-02-21T05:46:53.336Z,34.97
2018-02-21T05:49:20.805Z,35.90
2018-02-21T05:51:48.282Z,36.63
2018-02-21T05:54:15.724Z,36.92
2018-02-21T05:56:43.196Z,39.40
2018-02-21T05:59:11.700Z,36.64
2018-02-21T06:01:39.169Z,37.97
2018-02-21T06:04:06.686Z,36.60
2018-02-21T06:06:34.148Z,33.57
2018-02-21T06:09:01.612Z,35.00
2018-02-21T06:11:29.155Z,36.87
2018-02-21T06:13:56.634Z,36.88
2018-02-21T06:16:25.004Z,35.55
2018-02-21T06:18:52.447Z,38.53
2018-02-21T06:21:20.122Z,35.63
2018-02-21T06:23:47.588Z,41.22
2018-02-21T06:26:15.064Z,37.50
2018-02-21T06:28:42.554Z,37.20
2018-02-21T06:31:09.992Z,37.23
2018-02-21T06:33:37.746Z,34.90
2018-02-21T06:36:05.176Z,37.47
2018-02-21T06:38:38.405Z,35.80
2018-02-21T06:41:05.906Z,40.07
2018-02-21T06:43:33.978Z,40.22
2018-02-21T06:46:02.232Z,38.78
2018-02-21T06:48:29.755Z,38.60
2018-02-21T06:51:00.037Z,38.50
2018-02-21T06:53:32.429Z,39.60
2018-02-21T06:55:59.914Z,38.67
2018-02-21T06:58:27.652Z,40.77
2018-02-21T07:00:55.125Z,37.10
2018-02-21T07:03:23.216Z,41.92
2018-02-21T07:05:50.715Z,38.05
2018-02-21T07:08:18.183Z,38.77
2018-02-21T07:10:45.761Z,36.30
2018-02-21T07:13:13.345Z,34.18
2018-02-21T07:15:40.887Z,36.93
2018-02-21T07:18:08.416Z,38.00
2018-02-21T07:20:35.967Z,35.67
2018-02-21T07:23:03.437Z,36.83
2018-02-21T07:25:39.993Z,33.72
2018-02-21T07:28:07.803Z,38.42
2018-02-21T07:30:35.241Z,35.87
2018-02-21T07:33:02.722Z,33.73
2018-02-21T07:35:31.731Z,36.27
2018-02-21T07:37:59.177Z,36.80
2018-02-21T07:40:31.694Z,32.70
2018-02-21T07:42:59.304Z,39.80
2018-02-21T07:45:28.381Z,33.80
2018-02-21T07:47:56.006Z,35.42
2018-02-21T07:50:23.598Z,36.90
2018-02-21T07:52:51.976Z,31.25
2018-02-21T07:55:19.433Z,36.58
2018-02-21T07:57:46.902Z,32.80
2018-02-21T08:00:14.400Z,32.37
2018-02-21T08:02:41.872Z,34.50
2018-02-21T08:05:09.333Z,31.05
2018-02-21T08:07:36.826Z,32.77
2018-02-21T08:10:04.291Z,30.23
2018-02-21T08:12:31.735Z,33.33
2018-02-21T08:14:59.225Z,32.67
2018-02-21T08:17:27.564Z,29.30
2018-02-21T08:19:55.034Z,31.62
2018-02-21T08:22:22.687Z,30.77
2018-02-21T08:24:50.453Z,34.77
2018-02-21T08:27:20.773Z,29.37
2018-02-21T08:29:48.352Z,32.75
2018-02-21T08:32:15.799Z,28.83
2018-02-21T08:34:44.241Z,22.23
2018-02-21T08:37:11.698Z,27.20
2018-02-21T08:39:39.148Z,29.97
2018-02-21T08:42:06.649Z,28.90
2018-02-21T08:44:34.093Z,30.42
2018-02-21T08:47:01.574Z,33.23
2018-02-21T08:49:29.020Z,29.90
2018-02-21T08:51:56.510Z,26.62
2018-02-21T08:54:23.995Z,31.00
2018-02-21T08:56:52.244Z,24.50
2018-02-21T08:59:19.753Z,30.90
2018-02-21T09:01:47.212Z,23.03
2018-02-21T09:04:14.711Z,28.30
2018-02-21T09:06:42.196Z,27.73
2018-02-21T09:09:09.914Z,28.62
2018-02-21T09:11:40.802Z,27.70
2018-02-21T09:14:08.305Z,28.00
2018-02-21T09:16:36.401Z,23.65
2018-02-21T09:19:03.839Z,26.43
2018-02-21T09:21:31.323Z,27.73
2018-02-21T09:23:58.798Z,28.23
2018-02-21T09:26:26.276Z,31.40
2018-02-21T09:28:53.755Z,27.53
2018-02-21T09:31:21.203Z,17.62
2018-02-21T09:33:48.676Z,26.37
2018-02-21T09:36:16.160Z,28.03
2018-02-21T09:38:43.617Z,17.40
2018-02-21T09:41:14.833Z,26.53
2018-02-21T09:43:42.314Z,32.00
2018-02-21T09:46:09.817Z,27.43
2018-02-21T09:48:37.360Z,28.55
2018-02-21T09:51:04.803Z,28.55
2018-02-21T09:53:32.241Z,24.77
2018-02-21T09:56:00.589Z,28.10
2018-02-21T09:58:28.295Z,19.33
2018-02-21T10:00:55.771Z,24.15
2018-02-21T10:03:23.249Z,25.63
2018-02-21T10:05:50.709Z,23.93
2018-02-21T10:08:18.197Z,25.58
2018-02-21T10:10:45.729Z,28.60
2018-02-21T10:13:16.981Z,19.20
2018-02-21T10:15:44.457Z,16.37
2018-02-21T10:18:13.097Z,16.48
2018-02-21T10:20:40.575Z,15.35
2018-02-21T10:23:08.020Z,23.13
2018-02-21T10:25:35.468Z,21.70
2018-02-21T10:28:02.953Z,24.90
2018-02-21T10:30:30.412Z,24.87
2018-02-21T10:32:57.872Z,20.58
2018-02-21T10:35:26.237Z,26.55
2018-02-21T10:37:53.709Z,26.43
2018-02-21T10:40:21.160Z,15.87
2018-02-21T10:42:48.628Z,23.15
2018-02-21T10:45:16.162Z,25.07
2018-02-21T10:47:43.636Z,19.57
2018-02-21T10:50:11.133Z,26.13
2018-02-21T10:52:40.295Z,24.60
2018-02-21T10:55:07.724Z,19.63
2018-02-21T10:57:38.585Z,22.70
2018-02-21T11:00:06.067Z,24.23
2018-02-21T11:02:33.559Z,26.60
2018-02-21T11:05:00.994Z,20.30
2018-02-21T11:07:29.264Z,25.40
2018-02-21T11:09:56.714Z,25.67
2018-02-21T11:12:25.088Z,19.73
2018-02-21T11:14:52.595Z,24.10
2018-02-21T11:17:20.057Z,25.53
2018-02-21T11:19:47.560Z,23.13
2018-02-21T11:22:15.056Z,20.30
2018-02-21T11:24:43.107Z,21.96
2018-02-21T11:27:10.733Z,20.30
2018-02-21T11:29:38.861Z,25.00
2018-02-21T11:32:06.328Z,14.87
2018-02-21T11:34:33.823Z,21.70
2018-02-21T11:37:02.220Z,15.77
2018-02-21T11:39:30.487Z,21.37
2018-02-21T11:41:58.814Z,21.77
2018-02-21T11:44:27.181Z,13.73
2018-02-21T11:46:54.718Z,22.03
2018-02-21T11:49:22.949Z,13.77
2018-02-21T11:51:50.494Z,18.10
2018-02-21T11:54:17.959Z,8.95
2018-02-21T11:56:46.171Z,16.77
2018-02-21T11:59:14.427Z,17.30
2018-02-21T12:01:41.881Z,17.23
2018-02-21T12:04:09.333Z,20.20
2018-02-21T12:06:36.797Z,18.80
2018-02-21T12:09:04.269Z,16.10
2018-02-21T12:11:31.723Z,11.18
2018-02-21T12:14:04.214Z,17.34
2018-02-21T12:16:32.463Z,23.10
2018-02-21T12:19:00.220Z,15.18
2018-02-21T12:21:27.684Z,15.88
2018-02-21T12:23:55.171Z,18.50
2018-02-21T12:26:22.636Z,16.93
2018-02-21T12:28:50.081Z,17.10
2018-02-21T12:31:17.546Z,15.03
2018-02-21T12:33:45.061Z,14.63
2018-02-21T12:36:12.501Z,16.33
2018-02-21T12:38:39.956Z,13.53
2018-02-21T12:41:13.034Z,9.68
2018-02-21T12:43:40.540Z,16.48
2018-02-21T12:46:09.729Z,11.90
2018-02-21T12:48:37.213Z,17.25
2018-02-21T12:51:04.664Z,18.17
2018-02-21T12:53:32.401Z,16.27
2018-02-21T12:55:59.861Z,9.43
2018-02-21T12:58:28.114Z,17.03
2018-02-21T13:00:55.601Z,12.30
2018-02-21T13:03:23.074Z,15.17
2018-02-21T13:05:50.592Z,14.87
2018-02-21T13:08:18.064Z,18.10
2018-02-21T13:10:45.644Z,15.93
2018-02-21T13:13:13.120Z,14.77
2018-02-21T13:15:42.258Z,16.33
2018-02-21T13:18:09.742Z,15.07
2018-02-21T13:20:37.233Z,14.45
2018-02-21T13:23:04.674Z,10.07
2018-02-21T13:25:32.714Z,13.90
2018-02-21T13:28:00.204Z,14.32
2018-02-21T13:30:27.669Z,15.85
2018-02-21T13:32:55.740Z,16.85
2018-02-21T13:35:23.236Z,15.27
2018-02-21T13:37:50.672Z,16.30
2018-02-21T13:40:18.117Z,16.30
2018-02-21T13:42:45.580Z,17.17
2018-02-21T13:45:13.302Z,18.60
2018-02-21T13:47:44.581Z,14.43
2018-02-21T13:50:12.005Z,11.90
2018-02-21T13:52:39.928Z,12.07
2018-02-21T13:55:07.429Z,12.52
2018-02-21T13:57:34.897Z,14.90
2018-02-21T14:00:02.373Z,13.43
2018-02-21T14:02:29.904Z,15.60
2018-02-21T14:04:57.379Z,19.53
2018-02-21T14:07:24.886Z,15.73
2018-02-21T14:09:52.472Z,13.07
2018-02-21T14:12:19.913Z,16.30
2018-02-21T14:14:47.388Z,11.10
2018-02-21T14:17:18.028Z,14.80
2018-02-21T14:19:45.623Z,8.80
2018-02-21T14:22:13.211Z,12.80
2018-02-21T14:24:40.673Z,12.77
2018-02-21T14:27:08.132Z,14.60
2018-02-21T14:29:35.593Z,10.40
2018-02-21T14:32:06.358Z,9.18
2018-02-21T14:34:33.840Z,13.93
2018-02-21T14:37:01.303Z,9.67
2018-02-21T14:39:28.765Z,13.15
2018-02-21T14:41:57.040Z,11.00
2018-02-21T14:44:24.569Z,11.87
2018-02-21T14:46:56.845Z,11.43
2018-02-21T14:49:24.303Z,11.03
2018-02-21T14:51:52.775Z,12.48
2018-02-21T14:54:20.232Z,13.77
2018-02-21T14:56:47.702Z,9.88
2018-02-21T14:59:15.145Z,12.50
2018-02-21T15:01:45.985Z,8.30
2018-02-21T15:04:13.456Z,13.20
2018-02-21T15:06:41.420Z,15.55
2018-02-21T15:09:09.703Z,12.18
2018-02-21T15:11:37.917Z,13.83
2018-02-21T15:14:06.633Z,13.30
2018-02-21T15:16:34.500Z,14.60
2018-02-21T15:19:01.965Z,13.70
2018-02-21T15:21:29.477Z,10.80
2018-02-21T15:23:56.932Z,16.03
2018-02-21T15:26:25.421Z,15.60
2018-02-21T15:28:53.049Z,13.67
2018-02-21T15:31:20.493Z,15.00
2018-02-21T15:33:47.941Z,10.18
2018-02-21T15:36:15.403Z,11.57
2018-02-21T15:38:42.960Z,10.97
2018-02-21T15:41:10.370Z,14.97
2018-02-21T15:43:38.780Z,13.85
2018-02-21T15:46:06.253Z,11.53
2018-02-21T15:48:37.505Z,12.52
2018-02-21T15:51:04.962Z,13.35
2018-02-21T15:53:32.454Z,9.20
2018-02-21T15:55:59.893Z,14.85
2018-02-21T15:58:27.324Z,10.33
2018-02-21T16:00:54.913Z,15.48
2018-02-21T16:03:22.916Z,15.22
2018-02-21T16:05:50.517Z,10.95
2018-02-21T16:08:17.965Z,10.50
2018-02-21T16:10:45.441Z,17.60
2018-02-21T16:13:12.902Z,11.98
2018-02-21T16:15:40.436Z,15.68
2018-02-21T16:18:07.910Z,11.47
2018-02-21T16:20:35.444Z,14.67
2018-02-21T16:23:02.884Z,13.62
2018-02-21T16:25:30.348Z,14.27
2018-02-21T16:27:58.029Z,11.50
2018-02-21T16:30:25.816Z,9.78
2018-02-21T16:32:53.345Z,14.60
2018-02-21T16:35:20.804Z,9.17
2018-02-21T16:37:48.272Z,13.98
2018-02-21T16:40:15.748Z,17.83
2018-02-21T16:42:43.292Z,13.40
2018-02-21T16:45:10.742Z,11.00
2018-02-21T16:47:39.203Z,13.60
2018-02-21T16:50:06.657Z,12.02
2018-02-21T16:52:34.142Z,10.47
2018-02-21T16:55:01.809Z,12.17
2018-02-21T16:57:31.061Z,12.15
2018-02-21T16:59:58.851Z,15.25
2018-02-21T17:02:26.312Z,11.40
2018-02-21T17:04:54.415Z,11.00
2018-02-21T17:07:23.569Z,13.25
2018-02-21T17:09:51.066Z,17.20
2018-02-21T17:12:19.290Z,15.73
2018-02-21T17:14:47.541Z,20.23
2018-02-21T17:17:15.025Z,16.30
2018-02-21T17:19:43.502Z,14.05
2018-02-21T17:22:10.982Z,18.70
2018-02-21T17:24:38.461Z,17.37
2018-02-21T17:27:05.913Z,12.97
2018-02-21T17:29:33.372Z,16.67
2018-02-21T17:32:01.800Z,10.65
2018-02-21T17:34:34.411Z,15.77
2018-02-21T17:37:02.390Z,18.15
2018-02-21T17:39:29.855Z,20.83
2018-02-21T17:41:57.357Z,18.43
2018-02-21T17:44:24.854Z,17.02
2018-02-21T17:46:52.314Z,19.02
2018-02-21T17:49:19.770Z,20.73
2018-02-21T17:51:47.256Z,20.50
2018-02-21T17:54:15.256Z,19.80
2018-02-21T17:56:45.726Z,19.67
2018-02-21T17:59:13.193Z,21.63
2018-02-21T18:01:41.645Z,18.00
2018-02-21T18:04:09.136Z,22.07
2018-02-21T18:06:36.581Z,19.10
2018-02-21T18:09:04.094Z,20.20
2018-02-21T18:11:31.556Z,20.07
2018-02-21T18:13:59.144Z,17.92
2018-02-21T18:16:26.617Z,20.08
2018-02-21T18:18:54.588Z,21.48
2018-02-21T18:21:27.633Z,18.90
2018-02-21T18:23:55.116Z,20.95
2018-02-21T18:26:22.596Z,18.60
2018-02-21T18:28:50.886Z,20.00
2018-02-21T18:31:20.050Z,14.00
2018-02-21T18:33:47.516Z,19.23
2018-02-21T18:36:18.567Z,19.87
2018-02-21T18:38:45.997Z,16.13
2018-02-21T18:41:13.481Z,19.60
2018-02-21T18:43:41.718Z,20.02
2018-02-21T18:46:10.293Z,20.95
2018-02-21T18:48:37.800Z,22.03
2018-02-21T18:51:05.692Z,19.98
2018-02-21T18:53:35.154Z,18.02
2018-02-21T18:56:02.633Z,18.92
2018-02-21T18:58:30.262Z,20.80
2018-02-21T19:00:58.383Z,19.40
2018-02-21T19:03:26.643Z,20.93
2018-02-21T19:05:57.965Z,18.67
2018-02-21T19:08:25.420Z,18.70
2018-02-21T19:10:52.942Z,15.53
2018-02-21T19:13:20.380Z,16.20
2018-02-21T19:15:48.718Z,17.55
2018-02-21T19:18:16.173Z,17.77
2018-02-21T19:20:47.957Z,19.40
2018-02-21T19:23:15.493Z,15.30
2018-02-21T19:25:43.740Z,19.92
2018-02-21T19:28:11.340Z,19.17
2018-02-21T19:30:41.416Z,18.47
2018-02-21T19:33:08.888Z,20.83
2018-02-21T19:35:36.347Z,15.57
2018-02-21T19:38:03.808Z,18.90
2018-02-21T19:40:31.299Z,17.33
2018-02-21T19:42:58.837Z,17.47
2018-02-21T19:45:26.276Z,19.30
2018-02-21T19:47:53.816Z,16.15
2018-02-21T19:50:22.208Z,20.64
2018-02-21T19:52:49.698Z,15.00
2018-02-21T19:55:17.187Z,18.80
2018-02-21T19:57:45.580Z,16.37
2018-02-21T20:00:13.042Z,19.50
2018-02-21T20:02:41.194Z,18.10
2018-02-21T20:05:08.860Z,16.90
2018-02-21T20:07:36.303Z,17.70
2018-02-21T20:10:03.779Z,18.05
2018-02-21T20:12:31.215Z,18.93
2018-02-21T20:14:58.722Z,18.33
2018-02-21T20:17:26.183Z,17.73
2018-02-21T20:19:53.655Z,18.67
2018-02-21T20:22:28.576Z,17.83
2018-02-21T20:24:56.053Z,19.63
2018-02-21T20:27:23.517Z,17.93
2018-02-21T20:29:51.032Z,17.03
2018-02-21T20:32:18.483Z,19.55
2018-02-21T20:34:46.001Z,16.85
2018-02-21T20:37:17.240Z,19.00
2018-02-21T20:39:45.702Z,17.48
2018-02-21T20:42:13.178Z,18.20
2018-02-21T20:44:40.719Z,19.30
2018-02-21T20:47:08.223Z,17.87
2018-02-21T20:49:35.656Z,16.45
2018-02-21T20:52:04.800Z,16.90
2018-02-21T20:54:32.283Z,17.13
2018-02-21T20:56:59.754Z,17.63
2018-02-21T20:59:27.242Z,15.40
2018-02-21T21:01:55.478Z,14.80
2018-02-21T21:04:23.351Z,16.12
2018-02-21T21:06:50.816Z,16.40
2018-02-21T21:09:19.052Z,15.10
2018-02-21T21:11:48.512Z,16.43
2018-02-21T21:14:16.738Z,16.12
2018-02-21T21:16:44.184Z,15.75
2018-02-21T21:19:12.001Z,15.92
2018-02-21T21:21:40.260Z,13.80
2018-02-21T21:24:07.777Z,15.70
2018-02-21T21:26:35.340Z,14.27
2018-02-21T21:29:03.721Z,16.97
2018-02-21T21:31:31.409Z,15.00
2018-02-21T21:33:58.896Z,15.70
2018-02-21T21:36:27.667Z,14.73
2018-02-21T21:38:55.325Z,16.50
2018-02-21T21:41:22.768Z,15.50
2018-02-21T21:43:51.268Z,14.30
2018-02-21T21:46:18.840Z,14.60
2018-02-21T21:48:46.372Z,13.30
2018-02-21T21:51:13.860Z,14.55
2018-02-21T21:53:41.352Z,12.83
2018-02-21T21:56:08.802Z,13.23
2018-02-21T21:58:36.273Z,13.33
2018-02-21T22:01:03.891Z,12.80
2018-02-21T22:03:31.731Z,12.67
2018-02-21T22:05:59.558Z,12.27
2018-02-21T22:08:30.052Z,12.83
2018-02-21T22:10:57.952Z,12.32
2018-02-21T22:13:25.443Z,13.70
2018-02-21T22:15:52.856Z,11.70
2018-02-21T22:18:20.332Z,13.57
2018-02-21T22:20:49.988Z,11.57
2018-02-21T22:23:18.444Z,11.63
2018-02-21T22:25:45.941Z,11.77
2018-02-21T22:28:14.351Z,12.10
2018-02-21T22:30:42.071Z,14.83
2018-02-21T22:33:09.677Z,14.32
2018-02-21T22:35:37.430Z,12.80
2018-02-21T22:38:04.887Z,14.43
2018-02-21T22:40:34.195Z,11.85
2018-02-21T22:43:01.852Z,12.60
2018-02-21T22:45:29.693Z,12.17
2018-02-21T22:47:57.620Z,13.02
2018-02-21T22:50:25.152Z,10.43
2018-02-21T22:52:52.601Z,13.97
2018-02-21T22:55:20.101Z,11.35
2018-02-21T22:57:47.620Z,12.53
2018-02-21T23:00:15.595Z,12.27
2018-02-21T23:02:43.057Z,13.07
2018-02-21T23:05:11.488Z,12.97
2018-02-21T23:07:39.732Z,13.10
2018-02-21T23:10:07.210Z,12.57
2018-02-21T23:12:34.648Z,11.93
2018-02-21T23:15:02.114Z,12.55
2018-02-21T23:17:30.293Z,12.14
2018-02-21T23:19:57.741Z,11.37
2018-02-21T23:22:25.705Z,12.83
2018-02-21T23:24:58.595Z,12.47
2018-02-21T23:27:26.061Z,11.37
2018-02-21T23:29:53.528Z,12.90
2018-02-21T23:32:21.027Z,11.40
2018-02-21T23:34:48.484Z,10.02
2018-02-21T23:37:15.980Z,12.00
2018-02-21T23:39:44.357Z,10.60
2018-02-21T23:42:11.818Z,11.10
2018-02-21T23:44:39.296Z,12.17
2018-02-21T23:47:06.804Z,13.47
2018-02-21T23:49:34.519Z,11.07
2018-02-21T23:52:01.968Z,10.82
2018-02-21T23:54:29.433Z,11.03
2018-02-21T23:56:57.380Z,10.77
2018-02-21T23:59:25.648Z,11.82
